createdAt,value
2023-04-03T00:00:13.546Z,75.22
2023-04-03T00:01:12.855Z,75.62
2023-04-03T00:02:12.922Z,74.97
2023-04-03T00:03:12.978Z,74.54
2023-04-03T00:04:13.009Z,75.03
2023-04-03T00:05:13.533Z,76.12
2023-04-03T00:06:13.075Z,76.41
2023-04-03T00:07:13.138Z,76.03
2023-04-03T00:08:13.271Z,76.41
2023-04-03T00:09:13.241Z,75.71
2023-04-03T00:10:13.304Z,75.80
2023-04-03T00:11:13.347Z,75.03
2023-04-03T00:12:13.407Z,75.20
2023-04-03T00:13:13.564Z,76.30
2023-04-03T00:14:13.547Z,77.11
2023-04-03T00:15:14.544Z,76.48
2023-04-03T00:16:14.599Z,76.34
2023-04-03T00:17:13.834Z,76.21
2023-04-03T00:18:13.894Z,75.58
2023-04-03T00:19:13.934Z,76.40
2023-04-03T00:20:13.971Z,75.79
2023-04-03T00:21:13.986Z,75.37
2023-04-03T00:22:14.541Z,74.62
2023-04-03T00:23:14.026Z,73.96
2023-04-03T00:24:14.021Z,74.01
2023-04-03T00:25:14.049Z,73.73
2023-04-03T00:26:14.075Z,73.62
2023-04-03T00:27:14.078Z,74.20
2023-04-03T00:28:14.160Z,73.45
2023-04-03T00:29:14.135Z,74.66
2023-04-03T00:30:14.196Z,74.86
2023-04-03T00:31:14.377Z,75.03
2023-04-03T00:32:15.044Z,74.81
2023-04-03T00:33:14.346Z,75.90
2023-04-03T00:34:14.381Z,76.84
2023-04-03T00:35:14.433Z,76.79
2023-04-03T00:36:14.641Z,76.56
2023-04-03T00:37:14.531Z,77.96
2023-04-03T00:38:14.604Z,78.05
2023-04-03T00:39:14.629Z,78.21
2023-04-03T00:40:14.737Z,77.25
2023-04-03T00:41:14.722Z,77.38
2023-04-03T00:42:14.765Z,76.89
2023-04-03T00:43:15.582Z,77.56
2023-04-03T00:44:14.872Z,76.81
2023-04-03T00:45:14.899Z,76.47
2023-04-03T00:46:14.977Z,76.58
2023-04-03T00:47:14.949Z,76.45
2023-04-03T00:48:14.988Z,75.96
2023-04-03T00:49:15.020Z,76.88
2023-04-03T00:50:15.080Z,77.53
2023-04-03T00:51:15.080Z,77.93
2023-04-03T00:52:15.123Z,77.56
2023-04-03T00:53:15.223Z,78.39
2023-04-03T00:54:15.578Z,78.97
2023-04-03T00:55:15.239Z,78.46
2023-04-03T00:56:15.260Z,77.54
2023-04-03T00:57:15.398Z,77.52
2023-04-03T00:58:15.345Z,77.06
2023-04-03T00:59:15.416Z,76.95
2023-04-03T01:00:15.429Z,77.69
2023-04-03T01:01:15.496Z,78.30
2023-04-03T01:02:15.566Z,78.94
2023-04-03T01:03:15.578Z,78.98
2023-04-03T01:04:15.826Z,79.22
2023-04-03T01:05:15.668Z,78.97
2023-04-03T01:06:15.754Z,78.67
2023-04-03T01:07:15.760Z,78.69
2023-04-03T01:08:15.847Z,78.35
2023-04-03T01:09:15.829Z,78.17
2023-04-03T01:10:15.915Z,77.73
2023-04-03T01:11:16.044Z,77.33
2023-04-03T01:12:15.986Z,77.73
2023-04-03T01:13:16.023Z,77.36
2023-04-03T01:14:16.118Z,78.59
2023-04-03T01:15:16.222Z,77.78
2023-04-03T01:16:16.369Z,78.10
2023-04-03T01:17:16.426Z,78.32
2023-04-03T01:18:16.497Z,79.46
2023-04-03T01:19:16.556Z,80.64
2023-04-03T01:20:16.645Z,81.15
2023-04-03T01:21:16.737Z,79.95
2023-04-03T01:22:16.862Z,79.39
2023-04-03T01:23:16.948Z,78.68
2023-04-03T01:24:17.055Z,79.02
2023-04-03T01:25:17.130Z,80.27
2023-04-03T01:26:17.256Z,80.37
2023-04-03T01:27:17.310Z,79.96
2023-04-03T01:28:17.400Z,80.40
2023-04-03T01:29:17.499Z,79.47
2023-04-03T01:30:17.655Z,80.30
2023-04-03T01:31:17.694Z,80.71
2023-04-03T01:32:17.740Z,80.42
2023-04-03T01:33:17.793Z,80.48
2023-04-03T01:34:17.905Z,80.86
2023-04-03T01:35:17.995Z,80.88
2023-04-03T01:36:18.057Z,80.48
2023-04-03T01:37:18.185Z,80.70
2023-04-03T01:38:18.281Z,81.67
2023-04-03T01:39:18.412Z,82.64
2023-04-03T01:40:18.501Z,81.56
2023-04-03T01:41:18.595Z,81.15
2023-04-03T01:42:18.703Z,81.28
2023-04-03T01:43:18.810Z,81.01
2023-04-03T01:44:18.935Z,80.96
2023-04-03T01:45:19.015Z,81.21
2023-04-03T01:46:19.240Z,81.69
2023-04-03T01:47:19.279Z,82.72
2023-04-03T01:48:19.343Z,82.17
2023-04-03T01:49:19.479Z,82.41
2023-04-03T01:50:19.581Z,84.16
2023-04-03T01:51:19.657Z,83.59
2023-04-03T01:52:19.761Z,82.91
2023-04-03T01:53:19.876Z,83.65
2023-04-03T01:54:19.922Z,83.25
2023-04-03T01:55:20.053Z,83.35
2023-04-03T01:56:20.148Z,83.05
2023-04-03T01:57:20.259Z,82.65
2023-04-03T01:58:20.346Z,81.80
2023-04-03T01:59:20.483Z,82.91
2023-04-03T02:00:20.623Z,82.53
2023-04-03T02:01:20.702Z,82.20
2023-04-03T02:02:20.759Z,81.65
2023-04-03T02:03:20.869Z,81.36
2023-04-03T02:04:21.090Z,80.93
2023-04-03T02:05:21.083Z,81.26
2023-04-03T02:06:21.178Z,81.39
2023-04-03T02:07:21.246Z,80.79
2023-04-03T02:08:21.376Z,80.56
2023-04-03T02:09:21.466Z,81.26
2023-04-03T02:10:21.539Z,80.84
2023-04-03T02:11:21.628Z,80.50
2023-04-03T02:12:21.694Z,80.02
2023-04-03T02:13:21.768Z,79.32
2023-04-03T02:14:21.873Z,79.75
2023-04-03T02:15:22.023Z,80.85
2023-04-03T02:16:22.112Z,81.78
2023-04-03T02:17:22.297Z,81.84
2023-04-03T02:18:22.360Z,82.40
2023-04-03T02:19:22.465Z,82.61
2023-04-03T02:20:22.557Z,82.41
2023-04-03T02:21:22.624Z,82.33
2023-04-03T02:22:22.696Z,82.39
2023-04-03T02:23:22.775Z,82.46
2023-04-03T02:24:22.929Z,82.06
2023-04-03T02:25:23.012Z,82.67
2023-04-03T02:26:23.114Z,82.23
2023-04-03T02:27:23.213Z,81.25
2023-04-03T02:28:23.296Z,81.21
2023-04-03T02:29:23.380Z,81.22
2023-04-03T02:30:23.473Z,80.75
2023-04-03T02:31:23.575Z,80.84
2023-04-03T02:32:23.800Z,80.74
2023-04-03T02:33:23.808Z,80.99
2023-04-03T02:34:23.923Z,81.43
2023-04-03T02:35:24.048Z,81.10
2023-04-03T02:36:24.290Z,81.75
2023-04-03T02:37:24.210Z,81.02
2023-04-03T02:38:24.295Z,81.50
2023-04-03T02:39:24.413Z,82.17
2023-04-03T02:40:24.594Z,82.66
2023-04-03T02:41:24.676Z,82.56
2023-04-03T02:42:24.789Z,83.18
2023-04-03T02:43:24.950Z,82.59
2023-04-03T02:44:25.021Z,82.51
2023-04-03T02:45:25.160Z,81.79
2023-04-03T02:46:25.298Z,81.18
2023-04-03T02:47:25.435Z,82.26
2023-04-03T02:48:25.533Z,82.10
2023-04-03T02:49:25.643Z,83.12
2023-04-03T02:50:25.769Z,83.88
2023-04-03T02:51:25.886Z,84.15
2023-04-03T02:52:26.015Z,84.44
2023-04-03T02:53:26.134Z,84.44
2023-04-03T02:54:26.227Z,83.99
2023-04-03T02:55:26.325Z,84.05
2023-04-03T02:56:26.413Z,84.19
2023-04-03T02:57:26.555Z,84.15
2023-04-03T02:58:26.632Z,83.94
2023-04-03T02:59:26.753Z,84.02
2023-04-03T03:00:26.863Z,83.60
2023-04-03T03:01:26.985Z,83.51
2023-04-03T03:02:27.112Z,83.32
2023-04-03T03:03:27.246Z,83.54
2023-04-03T03:04:27.310Z,84.05
2023-04-03T03:05:27.445Z,84.22
2023-04-03T03:06:27.559Z,84.57
2023-04-03T03:07:27.628Z,84.63
2023-04-03T03:08:27.730Z,84.25
2023-04-03T03:09:27.863Z,83.73
2023-04-03T03:10:27.972Z,83.11
2023-04-03T03:11:28.068Z,82.78
2023-04-03T03:12:28.227Z,82.91
2023-04-03T03:13:29.077Z,83.25
2023-04-03T03:14:28.482Z,83.03
2023-04-03T03:15:28.573Z,83.48
2023-04-03T03:16:28.759Z,82.72
2023-04-03T03:17:28.797Z,82.83
2023-04-03T03:18:28.871Z,82.60
2023-04-03T03:19:29.561Z,82.38
2023-04-03T03:20:29.048Z,82.40
2023-04-03T03:21:29.124Z,82.42
2023-04-03T03:22:31.073Z,82.61
2023-04-03T03:23:29.410Z,82.42
2023-04-03T03:24:29.534Z,82.35
2023-04-03T03:25:29.604Z,81.92
2023-04-03T03:26:29.703Z,81.77
2023-04-03T03:27:29.800Z,82.20
2023-04-03T03:28:29.911Z,81.29
2023-04-03T03:29:30.045Z,82.03
2023-04-03T03:30:30.150Z,81.89
2023-04-03T03:31:30.222Z,81.97
2023-04-03T03:32:30.349Z,81.83
2023-04-03T03:33:30.428Z,80.93
2023-04-03T03:34:30.532Z,80.68
2023-04-03T03:35:30.775Z,80.94
2023-04-03T03:36:30.780Z,80.61
2023-04-03T03:37:30.895Z,80.91
2023-04-03T03:38:31.013Z,80.61
2023-04-03T03:39:31.136Z,79.64
2023-04-03T03:40:31.374Z,79.97
2023-04-03T03:41:31.424Z,79.34
2023-04-03T03:42:31.534Z,79.16
2023-04-03T03:43:31.668Z,79.63
2023-04-03T03:44:31.774Z,79.55
2023-04-03T03:45:32.564Z,79.87
2023-04-03T03:46:32.594Z,79.48
2023-04-03T03:47:32.133Z,79.15
2023-04-03T03:48:32.233Z,79.63
2023-04-03T03:49:32.360Z,80.19
2023-04-03T03:50:32.516Z,80.40
2023-04-03T03:51:32.637Z,80.94
2023-04-03T03:52:32.760Z,81.05
2023-04-03T03:53:33.558Z,81.50
2023-04-03T03:54:33.007Z,80.66
2023-04-03T03:55:33.130Z,79.77
2023-04-03T03:56:33.239Z,79.06
2023-04-03T03:57:33.445Z,79.08
2023-04-03T03:58:33.498Z,79.22
2023-04-03T03:59:33.662Z,79.14
2023-04-03T04:00:33.766Z,80.06
2023-04-03T04:01:33.911Z,80.67
2023-04-03T04:02:34.083Z,80.24
2023-04-03T04:03:34.130Z,80.01
2023-04-03T04:04:34.142Z,80.09
2023-04-03T04:05:34.378Z,80.50
2023-04-03T04:06:34.413Z,81.23
2023-04-03T04:07:34.526Z,80.72
2023-04-03T04:08:34.769Z,81.20
2023-04-03T04:09:34.763Z,80.24
2023-04-03T04:10:34.893Z,80.51
2023-04-03T04:11:35.021Z,79.66
2023-04-03T04:12:35.130Z,79.38
2023-04-03T04:13:35.238Z,79.43
2023-04-03T04:14:35.376Z,79.16
2023-04-03T04:15:35.933Z,79.31
2023-04-03T04:16:35.773Z,78.69
2023-04-03T04:17:35.750Z,79.06
2023-04-03T04:18:35.851Z,78.86
2023-04-03T04:19:35.920Z,78.52
2023-04-03T04:20:36.028Z,79.26
2023-04-03T04:21:36.173Z,78.96
2023-04-03T04:22:36.301Z,78.65
2023-04-03T04:23:36.414Z,79.01
2023-04-03T04:24:38.431Z,78.44
2023-04-03T04:25:36.694Z,78.06
2023-04-03T04:26:36.625Z,77.92
2023-04-03T04:27:36.673Z,77.49
2023-04-03T04:28:36.751Z,77.20
2023-04-03T04:29:36.798Z,78.11
2023-04-03T04:30:37.633Z,77.43
2023-04-03T04:31:36.916Z,77.53
2023-04-03T04:32:36.993Z,77.86
2023-04-03T04:33:37.071Z,78.96
2023-04-03T04:34:37.137Z,79.12
2023-04-03T04:35:37.355Z,78.34
2023-04-03T04:36:37.359Z,78.74
2023-04-03T04:37:37.306Z,78.60
2023-04-03T04:38:37.354Z,78.65
2023-04-03T04:39:37.404Z,78.61
2023-04-03T04:40:37.511Z,79.76
2023-04-03T04:41:37.568Z,79.65
2023-04-03T04:42:37.581Z,79.85
2023-04-03T04:43:37.655Z,79.40
2023-04-03T04:44:37.798Z,79.17
2023-04-03T04:45:37.919Z,78.40
2023-04-03T04:46:38.084Z,78.07
2023-04-03T04:47:37.944Z,78.56
2023-04-03T04:48:38.557Z,77.60
2023-04-03T04:49:38.103Z,77.22
2023-04-03T04:50:38.159Z,77.74
2023-04-03T04:51:48.849Z,77.86
2023-04-03T04:52:39.304Z,78.76
2023-04-03T04:53:38.387Z,78.91
2023-04-03T04:54:38.457Z,78.35
2023-04-03T04:55:38.692Z,78.55
2023-04-03T04:56:38.601Z,78.55
2023-04-03T04:57:38.735Z,77.91
2023-04-03T04:58:38.835Z,77.78
2023-04-03T04:59:38.933Z,77.44
2023-04-03T05:00:39.043Z,77.34
2023-04-03T05:01:39.240Z,78.16
2023-04-03T05:02:39.336Z,78.47
2023-04-03T05:03:39.378Z,78.81
2023-04-03T05:04:39.541Z,78.98
2023-04-03T05:05:39.929Z,79.27
2023-04-03T05:06:39.764Z,80.24
2023-04-03T05:07:41.654Z,79.96
2023-04-03T05:08:40.008Z,79.12
2023-04-03T05:09:40.183Z,79.84
2023-04-03T05:10:40.297Z,79.77
2023-04-03T05:11:40.437Z,79.41
2023-04-03T05:12:40.610Z,80.27
2023-04-03T05:13:40.701Z,80.11
2023-04-03T05:14:40.849Z,79.73
2023-04-03T05:15:40.998Z,79.30
2023-04-03T05:16:41.099Z,78.87
2023-04-03T05:17:41.289Z,79.81
2023-04-03T05:18:41.371Z,80.36
2023-04-03T05:19:41.503Z,80.61
2023-04-03T05:20:41.632Z,80.14
2023-04-03T05:21:41.769Z,80.33
2023-04-03T05:22:41.910Z,80.90
2023-04-03T05:23:42.573Z,80.86
2023-04-03T05:24:42.166Z,82.02
2023-04-03T05:25:42.294Z,81.53
2023-04-03T05:26:42.433Z,82.06
2023-04-03T05:27:42.539Z,82.76
2023-04-03T05:28:42.671Z,82.07
2023-04-03T05:29:43.932Z,82.68
2023-04-03T05:30:43.596Z,82.10
2023-04-03T05:31:43.144Z,82.27
2023-04-03T05:32:43.277Z,81.93
2023-04-03T05:33:43.328Z,82.62
2023-04-03T05:34:43.472Z,82.68
2023-04-03T05:35:43.612Z,83.29
2023-04-03T05:36:44.569Z,83.24
2023-04-03T05:37:43.859Z,82.37
2023-04-03T05:38:44.128Z,81.61
2023-04-03T05:39:44.123Z,81.62
2023-04-03T05:40:44.223Z,82.68
2023-04-03T05:42:00.088Z,82.37
2023-04-03T05:42:45.073Z,81.46
2023-04-03T05:43:44.544Z,81.78
2023-04-03T05:44:44.654Z,81.09
2023-04-03T05:45:46.270Z,81.42
2023-04-03T05:46:44.821Z,81.68
2023-04-03T05:47:44.928Z,81.82
2023-04-03T05:48:44.961Z,81.41
2023-04-03T05:49:45.040Z,80.80
2023-04-03T05:50:45.133Z,80.41
2023-04-03T05:51:45.576Z,79.38
2023-04-03T05:52:45.410Z,78.95
2023-04-03T05:53:45.521Z,79.15
2023-04-03T05:54:45.641Z,79.14
2023-04-03T05:55:45.759Z,78.40
2023-04-03T05:56:45.862Z,79.39
2023-04-03T05:57:45.969Z,79.97
2023-04-03T05:58:46.098Z,79.79
2023-04-03T05:59:46.237Z,79.39
2023-04-03T06:00:46.345Z,79.58
2023-04-03T06:01:46.644Z,79.81
2023-04-03T06:02:46.595Z,79.70
2023-04-03T06:03:46.769Z,79.72
2023-04-03T06:04:46.953Z,79.70
2023-04-03T06:05:46.921Z,80.61
2023-04-03T06:06:47.092Z,81.60
2023-04-03T06:07:47.161Z,81.04
2023-04-03T06:08:47.301Z,80.86
2023-04-03T06:09:47.461Z,80.88
2023-04-03T06:10:47.515Z,80.32
2023-04-03T06:11:47.655Z,80.51
2023-04-03T06:12:47.771Z,81.38
2023-04-03T06:13:47.897Z,81.32
2023-04-03T06:14:48.061Z,80.49
2023-04-03T06:15:48.234Z,80.04
2023-04-03T06:16:48.326Z,79.88
2023-04-03T06:17:48.490Z,79.75
2023-04-03T06:18:48.602Z,80.34
2023-04-03T06:19:48.674Z,80.76
2023-04-03T06:20:49.653Z,80.99
2023-04-03T06:21:48.909Z,80.24
2023-04-03T06:22:49.038Z,80.02
2023-04-03T06:23:49.482Z,79.46
2023-04-03T06:24:49.272Z,79.74
2023-04-03T06:25:49.344Z,79.65
2023-04-03T06:26:49.466Z,79.09
2023-04-03T06:27:49.584Z,78.83
2023-04-03T06:28:49.657Z,77.78
2023-04-03T06:29:49.837Z,76.64
2023-04-03T06:30:49.928Z,76.18
2023-04-03T06:31:50.021Z,76.94
2023-04-03T06:32:50.183Z,76.63
2023-04-03T06:33:50.235Z,76.21
2023-04-03T06:34:50.350Z,75.51
2023-04-03T06:35:50.506Z,74.90
2023-04-03T06:36:50.629Z,74.92
2023-04-03T06:37:50.729Z,75.70
2023-04-03T06:38:50.926Z,74.41
2023-04-03T06:39:51.290Z,74.86
2023-04-03T06:40:51.105Z,75.74
2023-04-03T06:41:51.233Z,78.12
2023-04-03T06:42:51.330Z,79.32
2023-04-03T06:43:51.522Z,80.51
2023-04-03T06:44:51.630Z,81.46
2023-04-03T06:45:51.813Z,81.40
2023-04-03T06:46:51.932Z,81.18
2023-04-03T06:47:52.053Z,81.68
2023-04-03T06:48:52.113Z,81.37
2023-04-03T06:49:52.214Z,81.56
2023-04-03T06:50:52.356Z,80.59
2023-04-03T06:51:52.498Z,80.87
2023-04-03T06:52:52.644Z,81.32
2023-04-03T06:53:52.765Z,82.59
2023-04-03T06:54:52.906Z,82.12
2023-04-03T06:55:53.011Z,81.18
2023-04-03T06:56:53.153Z,81.19
2023-04-03T06:57:53.180Z,81.96
2023-04-03T06:58:53.280Z,82.03
2023-04-03T06:59:53.354Z,82.15
2023-04-03T07:00:53.477Z,81.69
2023-04-03T07:01:53.574Z,82.12
2023-04-03T07:02:53.683Z,82.42
2023-04-03T07:03:53.736Z,82.70
2023-04-03T07:04:54.606Z,83.33
2023-04-03T07:05:53.933Z,82.62
2023-04-03T07:06:54.152Z,81.65
2023-04-03T07:07:54.092Z,81.23
2023-04-03T07:08:54.191Z,80.52
2023-04-03T07:09:54.335Z,80.85
2023-04-03T07:10:54.461Z,80.21
2023-04-03T07:11:54.568Z,80.12
2023-04-03T07:12:54.711Z,79.89
2023-04-03T07:13:54.859Z,79.64
2023-04-03T07:14:54.957Z,79.34
2023-04-03T07:15:55.085Z,80.21
2023-04-03T07:16:55.225Z,79.38
2023-04-03T07:17:55.421Z,79.31
2023-04-03T07:18:55.510Z,79.22
2023-04-03T07:19:55.647Z,80.49
2023-04-03T07:20:55.770Z,79.52
2023-04-03T07:21:55.920Z,79.31
2023-04-03T07:22:56.030Z,79.24
2023-04-03T07:23:56.136Z,80.27
2023-04-03T07:24:56.260Z,80.36
2023-04-03T07:25:56.405Z,80.23
2023-04-03T07:26:57.011Z,80.24
2023-04-03T07:27:57.100Z,80.64
2023-04-03T07:28:56.764Z,80.21
2023-04-03T07:29:56.977Z,79.66
2023-04-03T07:30:56.961Z,79.41
2023-04-03T07:31:57.116Z,78.48
2023-04-03T07:32:58.682Z,78.93
2023-04-03T07:33:57.370Z,78.90
2023-04-03T07:34:57.544Z,80.56
2023-04-03T07:35:57.679Z,81.23
2023-04-03T07:36:57.791Z,81.75
2023-04-03T07:37:57.936Z,81.48
2023-04-03T07:38:58.583Z,80.43
2023-04-03T07:39:58.238Z,80.34
2023-04-03T07:40:59.124Z,79.69
2023-04-03T07:41:58.508Z,78.65
2023-04-03T07:42:58.580Z,77.91
2023-04-03T07:43:58.642Z,77.08
2023-04-03T07:44:58.776Z,76.01
2023-04-03T07:45:59.606Z,75.17
2023-04-03T07:46:59.008Z,75.94
2023-04-03T07:47:59.142Z,77.94
2023-04-03T07:48:59.282Z,79.02
2023-04-03T07:49:59.378Z,79.70
2023-04-03T07:50:59.490Z,78.97
2023-04-03T07:51:59.594Z,79.67
2023-04-03T07:52:59.732Z,79.70
2023-04-03T07:54:00.941Z,77.77
2023-04-03T07:55:00.001Z,78.90
2023-04-03T07:56:00.156Z,78.23
2023-04-03T07:57:00.266Z,77.99
2023-04-03T07:58:00.383Z,78.09
2023-04-03T07:59:00.522Z,77.43
2023-04-03T08:00:00.694Z,77.60
2023-04-03T08:01:00.766Z,76.99
2023-04-03T08:02:00.903Z,76.64
2023-04-03T08:03:01.141Z,76.85
2023-04-03T08:04:02.345Z,75.63
2023-04-03T08:05:01.352Z,77.28
2023-04-03T08:06:01.434Z,76.66
2023-04-03T08:07:01.505Z,75.67
2023-04-03T08:08:01.632Z,76.01
2023-04-03T08:09:01.729Z,75.21
2023-04-03T08:10:01.816Z,74.71
2023-04-03T08:11:02.066Z,74.37
2023-04-03T08:12:02.064Z,73.68
2023-04-03T08:13:02.180Z,72.28
2023-04-03T08:14:02.326Z,72.63
2023-04-03T08:15:02.463Z,72.43
2023-04-03T08:16:02.549Z,71.35
2023-04-03T08:17:02.695Z,70.84
2023-04-03T08:18:02.808Z,69.77
2023-04-03T08:19:03.899Z,70.39
2023-04-03T08:20:03.000Z,68.72
2023-04-03T08:21:03.037Z,67.59
2023-04-03T08:22:03.145Z,66.65
2023-04-03T08:23:03.290Z,66.83
2023-04-03T08:24:03.588Z,67.85
2023-04-03T08:25:03.527Z,67.84
2023-04-03T08:26:03.647Z,68.32
2023-04-03T08:27:04.642Z,68.69
2023-04-03T08:28:03.879Z,68.58
2023-04-03T08:29:03.950Z,68.16
2023-04-03T08:30:04.123Z,67.03
2023-04-03T08:31:04.251Z,66.74
2023-04-03T08:32:04.465Z,68.23
2023-04-03T08:33:04.519Z,69.10
2023-04-03T08:34:04.505Z,68.75
2023-04-03T08:35:05.623Z,68.07
2023-04-03T08:36:04.721Z,67.79
2023-04-03T08:37:04.849Z,67.85
2023-04-03T08:38:04.953Z,68.67
2023-04-03T08:39:05.058Z,68.33
2023-04-03T08:40:05.132Z,70.39
2023-04-03T08:41:06.186Z,70.76
2023-04-03T08:42:05.482Z,71.03
2023-04-03T08:43:05.519Z,71.16
2023-04-03T08:44:05.625Z,70.13
2023-04-03T08:45:05.715Z,69.29
2023-04-03T08:46:05.851Z,67.93
2023-04-03T08:47:05.929Z,66.50
2023-04-03T08:48:06.350Z,66.66
2023-04-03T08:49:06.182Z,65.34
2023-04-03T08:50:06.185Z,64.77
2023-04-03T08:51:10.891Z,63.85
2023-04-03T08:52:07.336Z,63.71
2023-04-03T08:53:06.379Z,63.73
2023-04-03T08:54:06.480Z,63.45
2023-04-03T08:55:09.071Z,62.51
2023-04-03T08:56:07.568Z,62.00
2023-04-03T08:57:07.748Z,61.70
2023-04-03T08:58:06.901Z,60.95
2023-04-03T08:59:07.007Z,60.18
2023-04-03T09:00:07.068Z,60.15
2023-04-03T09:01:07.159Z,60.10
2023-04-03T09:02:07.239Z,61.36
2023-04-03T09:03:08.047Z,61.00
2023-04-03T09:04:07.561Z,61.61
2023-04-03T09:05:08.104Z,61.86
2023-04-03T09:06:07.722Z,60.24
2023-04-03T09:07:07.764Z,59.34
2023-04-03T09:08:09.605Z,59.46
2023-04-03T09:09:07.981Z,59.51
2023-04-03T09:10:08.124Z,58.44
2023-04-03T09:11:08.163Z,58.83
2023-04-03T09:12:08.261Z,58.89
2023-04-03T09:13:08.405Z,58.13
2023-04-03T09:14:08.561Z,59.31
2023-04-03T09:15:08.493Z,57.82
2023-04-03T09:16:08.683Z,58.11
2023-04-03T09:17:08.683Z,59.00
2023-04-03T09:18:08.884Z,58.19
2023-04-03T09:19:08.935Z,59.32
2023-04-03T09:20:09.042Z,58.16
2023-04-03T09:21:09.166Z,58.72
2023-04-03T09:22:09.333Z,60.76
2023-04-03T09:23:09.349Z,59.51
2023-04-03T09:24:11.112Z,59.70
2023-04-03T09:25:09.530Z,60.18
2023-04-03T09:26:10.582Z,60.28
2023-04-03T09:27:09.778Z,58.50
2023-04-03T09:28:09.902Z,57.28
2023-04-03T09:29:10.003Z,57.80
2023-04-03T09:30:09.949Z,58.79
2023-04-03T09:31:10.184Z,57.33
2023-04-03T09:32:10.089Z,57.65
2023-04-03T09:33:10.217Z,56.51
2023-04-03T09:34:10.225Z,56.99
2023-04-03T09:35:19.797Z,56.07
2023-04-03T09:36:11.356Z,55.02
2023-04-03T09:37:10.337Z,54.98
2023-04-03T09:38:11.104Z,53.93
2023-04-03T09:39:10.418Z,52.96
2023-04-03T09:40:10.427Z,52.42
2023-04-03T09:41:10.463Z,54.04
2023-04-03T09:42:10.478Z,54.39
2023-04-03T09:43:11.088Z,53.20
2023-04-03T09:44:10.621Z,55.75
2023-04-03T09:45:10.620Z,55.77
2023-04-03T09:46:10.640Z,53.40
2023-04-03T09:47:10.780Z,52.34
2023-04-03T09:48:15.950Z,54.68
2023-04-03T09:49:11.706Z,54.16
2023-04-03T09:50:10.734Z,52.91
2023-04-03T09:51:10.758Z,53.13
2023-04-03T09:52:10.792Z,53.08
2023-04-03T09:53:10.840Z,54.11
2023-04-03T09:54:10.892Z,53.47
2023-04-03T09:55:10.988Z,54.17
2023-04-03T09:56:10.999Z,54.68
2023-04-03T09:57:11.355Z,54.48
2023-04-03T09:58:11.105Z,53.94
2023-04-03T09:59:13.127Z,53.46
2023-04-03T10:00:11.175Z,54.61
2023-04-03T10:01:11.406Z,52.60
2023-04-03T10:02:11.267Z,51.75
2023-04-03T10:03:11.385Z,50.73
2023-04-03T10:04:11.421Z,50.87
2023-04-03T10:05:11.552Z,50.70
2023-04-03T10:06:11.544Z,53.01
2023-04-03T10:07:11.567Z,51.79
2023-04-03T10:08:11.677Z,53.14
2023-04-03T10:09:11.748Z,52.31
2023-04-03T10:10:11.776Z,52.14
2023-04-03T10:11:11.846Z,51.90
2023-04-03T10:12:11.946Z,53.17
2023-04-03T10:13:14.295Z,52.09
2023-04-03T10:14:13.047Z,51.56
2023-04-03T10:15:12.067Z,50.95
2023-04-03T10:16:12.133Z,52.37
2023-04-03T10:17:12.233Z,52.09
2023-04-03T10:18:24.054Z,50.84
2023-04-03T10:19:13.478Z,50.91
2023-04-03T10:20:12.610Z,49.78
2023-04-03T10:21:24.745Z,50.40
2023-04-03T10:22:13.325Z,52.52
2023-04-03T10:23:12.424Z,52.31
2023-04-03T10:24:13.090Z,53.20
2023-04-03T10:25:12.462Z,53.31
2023-04-03T10:26:14.578Z,53.24
2023-04-03T10:27:12.648Z,53.11
2023-04-03T10:28:12.637Z,52.51
2023-04-03T10:29:13.719Z,52.46
2023-04-03T10:30:12.725Z,52.02
2023-04-03T10:31:12.853Z,51.02
2023-04-03T10:32:12.897Z,51.17
2023-04-03T10:33:13.064Z,50.20
2023-04-03T10:34:13.149Z,51.43
2023-04-03T10:35:13.209Z,51.38
2023-04-03T10:36:15.095Z,51.79
2023-04-03T10:37:13.456Z,50.98
2023-04-03T10:38:13.390Z,50.32
2023-04-03T10:39:13.494Z,50.57
2023-04-03T10:40:13.621Z,49.63
2023-04-03T10:41:14.478Z,50.45
2023-04-03T10:42:17.228Z,50.03
2023-04-03T10:43:13.959Z,49.78
2023-04-03T10:44:13.879Z,49.58
2023-04-03T10:45:14.114Z,51.23
2023-04-03T10:46:14.097Z,51.16
2023-04-03T10:47:14.096Z,52.46
2023-04-03T10:48:14.168Z,51.80
2023-04-03T10:49:14.296Z,51.18
2023-04-03T10:50:14.281Z,51.59
2023-04-03T10:51:14.284Z,51.72
2023-04-03T10:52:14.344Z,51.74
2023-04-03T10:53:14.392Z,51.82
2023-04-03T10:54:14.423Z,51.09
2023-04-03T10:55:14.521Z,49.65
2023-04-03T10:56:14.514Z,49.58
2023-04-03T10:57:14.683Z,50.94
2023-04-03T10:58:15.682Z,51.67
2023-04-03T10:59:14.672Z,51.57
2023-04-03T11:00:15.217Z,48.38
2023-04-03T11:01:14.878Z,48.71
2023-04-03T11:02:14.900Z,47.91
2023-04-03T11:03:14.941Z,47.23
2023-04-03T11:04:14.972Z,46.62
2023-04-03T11:05:15.117Z,46.38
2023-04-03T11:06:15.108Z,47.70
2023-04-03T11:07:15.242Z,49.09
2023-04-03T11:08:15.339Z,49.23
2023-04-03T11:09:15.499Z,50.42
2023-04-03T11:10:15.947Z,49.63
2023-04-03T11:11:15.481Z,48.02
2023-04-03T11:12:16.214Z,48.98
2023-04-03T11:13:15.624Z,46.46
2023-04-03T11:14:15.732Z,48.14
2023-04-03T11:15:15.809Z,47.99
2023-04-03T11:16:15.857Z,46.55
2023-04-03T11:17:15.934Z,45.98
2023-04-03T11:18:16.022Z,47.50
2023-04-03T11:19:16.243Z,47.21
2023-04-03T11:20:16.166Z,48.34
2023-04-03T11:21:16.300Z,47.06
2023-04-03T11:22:16.300Z,47.01
2023-04-03T11:23:16.371Z,47.51
2023-04-03T11:24:16.466Z,49.05
2023-04-03T11:25:16.636Z,48.00
2023-04-03T11:26:16.596Z,47.50
2023-04-03T11:27:16.625Z,47.35
2023-04-03T11:28:16.672Z,46.70
2023-04-03T11:29:24.815Z,46.07
2023-04-03T11:30:18.112Z,45.18
2023-04-03T11:31:16.843Z,45.74
2023-04-03T11:32:16.827Z,45.92
2023-04-03T11:33:16.958Z,46.46
2023-04-03T11:34:16.842Z,45.08
2023-04-03T11:35:16.885Z,44.95
2023-04-03T11:36:25.709Z,46.59
2023-04-03T11:37:18.192Z,45.80
2023-04-03T11:38:17.600Z,45.08
2023-04-03T11:39:16.967Z,45.57
2023-04-03T11:40:17.095Z,45.26
2023-04-03T11:41:17.022Z,46.32
2023-04-03T11:42:17.053Z,47.08
2023-04-03T11:43:17.081Z,46.81
2023-04-03T11:44:17.131Z,46.22
2023-04-03T11:45:17.165Z,46.60
2023-04-03T11:46:18.178Z,45.22
2023-04-03T11:47:17.304Z,46.02
2023-04-03T11:48:24.828Z,46.29
2023-04-03T11:49:18.295Z,46.36
2023-04-03T11:50:17.346Z,45.47
2023-04-03T11:51:17.411Z,45.05
2023-04-03T11:52:17.402Z,45.94
2023-04-03T11:53:17.554Z,46.19
2023-04-03T11:54:17.558Z,45.75
2023-04-03T11:55:17.574Z,46.46
2023-04-03T11:56:17.642Z,45.96
2023-04-03T11:57:18.704Z,46.20
2023-04-03T11:58:18.614Z,46.88
2023-04-03T11:59:17.744Z,47.54
2023-04-03T12:00:17.771Z,48.20
2023-04-03T12:01:17.874Z,48.47
2023-04-03T12:02:17.950Z,46.26
2023-04-03T12:03:18.027Z,46.18
2023-04-03T12:04:18.743Z,45.61
2023-04-03T12:05:18.196Z,44.90
2023-04-03T12:06:18.228Z,44.11
2023-04-03T12:07:18.273Z,43.24
2023-04-03T12:08:19.107Z,43.19
2023-04-03T12:09:20.179Z,42.86
2023-04-03T12:10:31.118Z,45.05
2023-04-03T12:11:19.488Z,44.83
2023-04-03T12:12:18.605Z,44.79
2023-04-03T12:13:18.516Z,44.21
2023-04-03T12:14:18.538Z,43.58
2023-04-03T12:15:18.558Z,43.25
2023-04-03T12:16:18.656Z,43.56
2023-04-03T12:17:18.625Z,44.71
2023-04-03T12:18:18.682Z,44.50
2023-04-03T12:19:20.697Z,44.97
2023-04-03T12:20:18.756Z,44.75
2023-04-03T12:21:18.894Z,43.85
2023-04-03T12:22:18.845Z,44.10
2023-04-03T12:23:18.844Z,44.46
2023-04-03T12:24:19.919Z,43.51
2023-04-03T12:25:18.974Z,43.74
2023-04-03T12:26:19.630Z,43.57
2023-04-03T12:27:19.021Z,45.28
2023-04-03T12:28:19.005Z,44.30
2023-04-03T12:29:19.065Z,44.00
2023-04-03T12:30:19.098Z,43.17
2023-04-03T12:31:19.161Z,43.38
2023-04-03T12:32:19.180Z,44.26
2023-04-03T12:33:19.189Z,45.00
2023-04-03T12:34:19.166Z,45.85
2023-04-03T12:35:19.219Z,44.55
2023-04-03T12:36:19.255Z,44.07
2023-04-03T12:37:19.209Z,43.79
2023-04-03T12:38:19.252Z,44.70
2023-04-03T12:39:19.413Z,44.46
2023-04-03T12:40:20.183Z,44.54
2023-04-03T12:41:19.432Z,43.93
2023-04-03T12:42:19.388Z,43.16
2023-04-03T12:43:19.416Z,42.60
2023-04-03T12:44:20.117Z,43.06
2023-04-03T12:45:20.111Z,42.85
2023-04-03T12:46:19.538Z,43.30
2023-04-03T12:47:19.501Z,44.16
2023-04-03T12:48:19.519Z,43.95
2023-04-03T12:49:19.523Z,44.56
2023-04-03T12:50:19.587Z,44.47
2023-04-03T12:51:19.559Z,45.93
2023-04-03T12:52:19.649Z,45.16
2023-04-03T12:53:20.117Z,45.01